sensor_id;sensor_type;location;lat;lon;timestamp;temperature;humidity
2639;DHT22;1329;51.384;7.122;2023-03-23T00:01:14;13.10;99.90
2639;DHT22;1329;51.384;7.122;2023-03-23T00:03:45;13.10;99.90
2639;DHT22;1329;51.384;7.122;2023-03-23T00:06:14;13.10;99.90
2639;DHT22;1329;51.384;7.122;2023-03-23T00:08:47;13.10;99.90
2639;DHT22;1329;51.384;7.122;2023-03-23T00:11:19;13.20;99.90
2639;DHT22;1329;51.384;7.122;2023-03-23T00:13:50;13.10;99.90
2639;DHT22;1329;51.384;7.122;2023-03-23T00:16:19;13.20;99.90
2639;DHT22;1329;51.384;7.122;2023-03-23T00:18:56;13.20;99.90
2639;DHT22;1329;51.384;7.122;2023-03-23T00:21:25;13.20;99.90
2639;DHT22;1329;51.384;7.122;2023-03-23T00:23:59;13.20;99.90
2639;DHT22;1329;51.384;7.122;2023-03-23T00:26:26;13.20;99.90
2639;DHT22;1329;51.384;7.122;2023-03-23T00:28:56;13.20;99.90
2639;DHT22;1329;51.384;7.122;2023-03-23T00:31:26;13.20;99.90
2639;DHT22;1329;51.384;7.122;2023-03-23T00:33:57;13.20;99.90
2639;DHT22;1329;51.384;7.122;2023-03-23T00:36:26;13.20;99.90
2639;DHT22;1329;51.384;7.122;2023-03-23T00:38:54;13.20;99.90
2639;DHT22;1329;51.384;7.122;2023-03-23T00:41:27;13.30;99.90
2639;DHT22;1329;51.384;7.122;2023-03-23T00:43:58;13.30;99.90
2639;DHT22;1329;51.384;7.122;2023-03-23T00:46:26;13.30;99.90
2639;DHT22;1329;51.384;7.122;2023-03-23T00:48:55;13.30;99.90
2639;DHT22;1329;51.384;7.122;2023-03-23T00:51:23;13.40;99.90
2639;DHT22;1329;51.384;7.122;2023-03-23T00:53:51;13.40;99.90
2639;DHT22;1329;51.384;7.122;2023-03-23T00:56:18;13.40;99.90
2639;DHT22;1329;51.384;7.122;2023-03-23T00:58:45;13.40;99.90
2639;DHT22;1329;51.384;7.122;2023-03-23T01:01:13;13.40;99.90
2639;DHT22;1329;51.384;7.122;2023-03-23T01:03:40;13.40;99.90
2639;DHT22;1329;51.384;7.122;2023-03-23T01:06:09;13.40;99.90
2639;DHT22;1329;51.384;7.122;2023-03-23T01:08:39;13.40;99.90
2639;DHT22;1329;51.384;7.122;2023-03-23T01:11:12;13.40;99.90
2639;DHT22;1329;51.384;7.122;2023-03-23T01:13:41;13.40;99.90
2639;DHT22;1329;51.384;7.122;2023-03-23T01:16:08;13.40;99.90
2639;DHT22;1329;51.384;7.122;2023-03-23T01:18:38;13.40;99.90
2639;DHT22;1329;51.384;7.122;2023-03-23T01:21:07;13.40;99.90
2639;DHT22;1329;51.384;7.122;2023-03-23T01:23:38;13.30;99.90
2639;DHT22;1329;51.384;7.122;2023-03-23T01:26:08;13.30;99.90
2639;DHT22;1329;51.384;7.122;2023-03-23T01:28:36;13.30;99.90
2639;DHT22;1329;51.384;7.122;2023-03-23T01:31:04;13.30;99.90
2639;DHT22;1329;51.384;7.122;2023-03-23T01:33:32;13.30;99.90
2639;DHT22;1329;51.384;7.122;2023-03-23T01:36:06;13.30;99.90
2639;DHT22;1329;51.384;7.122;2023-03-23T01:38:34;13.30;99.90
2639;DHT22;1329;51.384;7.122;2023-03-23T01:41:02;13.20;99.90
2639;DHT22;1329;51.384;7.122;2023-03-23T01:43:30;13.20;99.90
2639;DHT22;1329;51.384;7.122;2023-03-23T01:45:57;13.20;99.90
2639;DHT22;1329;51.384;7.122;2023-03-23T01:48:26;13.20;99.90
2639;DHT22;1329;51.384;7.122;2023-03-23T01:50:58;13.20;99.90
2639;DHT22;1329;51.384;7.122;2023-03-23T01:53:34;13.20;99.90
2639;DHT22;1329;51.384;7.122;2023-03-23T01:56:04;13.20;99.90
2639;DHT22;1329;51.384;7.122;2023-03-23T01:58:34;13.20;99.90
2639;DHT22;1329;51.384;7.122;2023-03-23T02:01:06;13.20;99.90
2639;DHT22;1329;51.384;7.122;2023-03-23T02:03:38;13.20;99.90
2639;DHT22;1329;51.384;7.122;2023-03-23T02:06:10;13.10;99.90
2639;DHT22;1329;51.384;7.122;2023-03-23T02:08:41;13.10;99.90
2639;DHT22;1329;51.384;7.122;2023-03-23T02:11:13;13.10;99.90
2639;DHT22;1329;51.384;7.122;2023-03-23T02:13:42;13.10;99.90
2639;DHT22;1329;51.384;7.122;2023-03-23T02:16:15;13.10;99.90
2639;DHT22;1329;51.384;7.122;2023-03-23T02:18:54;13.10;99.90
2639;DHT22;1329;51.384;7.122;2023-03-23T02:24:57;13.10;99.90
2639;DHT22;1329;51.384;7.122;2023-03-23T02:27:59;13.10;99.90
2639;DHT22;1329;51.384;7.122;2023-03-23T02:30:47;13.00;99.90
2639;DHT22;1329;51.384;7.122;2023-03-23T02:33:43;13.00;99.90
2639;DHT22;1329;51.384;7.122;2023-03-23T02:36:22;13.00;99.90
2639;DHT22;1329;51.384;7.122;2023-03-23T02:38:59;13.10;99.90
2639;DHT22;1329;51.384;7.122;2023-03-23T02:41:33;13.00;99.90
2639;DHT22;1329;51.384;7.122;2023-03-23T02:44:04;13.00;99.90
2639;DHT22;1329;51.384;7.122;2023-03-23T02:46:32;13.00;99.90
2639;DHT22;1329;51.384;7.122;2023-03-23T02:49:06;13.00;99.90
2639;DHT22;1329;51.384;7.122;2023-03-23T02:51:37;13.10;99.90
2639;DHT22;1329;51.384;7.122;2023-03-23T02:54:07;13.00;99.90
2639;DHT22;1329;51.384;7.122;2023-03-23T02:56:35;13.00;99.90
2639;DHT22;1329;51.384;7.122;2023-03-23T02:59:07;13.00;99.90
2639;DHT22;1329;51.384;7.122;2023-03-23T03:02:00;13.00;99.90
2639;DHT22;1329;51.384;7.122;2023-03-23T03:04:33;13.00;99.90
2639;DHT22;1329;51.384;7.122;2023-03-23T03:07:30;13.00;99.90
2639;DHT22;1329;51.384;7.122;2023-03-23T03:10:09;13.00;99.90
2639;DHT22;1329;51.384;7.122;2023-03-23T03:12:53;12.90;99.90
2639;DHT22;1329;51.384;7.122;2023-03-23T03:15:27;12.90;99.90
2639;DHT22;1329;51.384;7.122;2023-03-23T03:18:03;12.90;99.90
2639;DHT22;1329;51.384;7.122;2023-03-23T03:20:39;12.90;99.90
2639;DHT22;1329;51.384;7.122;2023-03-23T03:23:10;12.90;99.90
2639;DHT22;1329;51.384;7.122;2023-03-23T03:25:40;12.90;99.90
2639;DHT22;1329;51.384;7.122;2023-03-23T03:28:14;12.90;99.90
2639;DHT22;1329;51.384;7.122;2023-03-23T03:30:45;12.90;99.90
2639;DHT22;1329;51.384;7.122;2023-03-23T03:33:14;12.90;99.90
2639;DHT22;1329;51.384;7.122;2023-03-23T03:35:44;12.90;99.90
2639;DHT22;1329;51.384;7.122;2023-03-23T03:38:12;12.90;99.90
2639;DHT22;1329;51.384;7.122;2023-03-23T03:40:40;12.90;99.90
2639;DHT22;1329;51.384;7.122;2023-03-23T03:43:07;12.90;99.90
2639;DHT22;1329;51.384;7.122;2023-03-23T03:45:34;13.00;99.90
2639;DHT22;1329;51.384;7.122;2023-03-23T03:48:05;12.90;99.90
2639;DHT22;1329;51.384;7.122;2023-03-23T03:50:36;13.00;99.90
2639;DHT22;1329;51.384;7.122;2023-03-23T03:53:07;13.00;99.90
2639;DHT22;1329;51.384;7.122;2023-03-23T03:55:35;13.00;99.90
2639;DHT22;1329;51.384;7.122;2023-03-23T03:58:07;13.00;99.90
2639;DHT22;1329;51.384;7.122;2023-03-23T04:00:34;13.00;99.90
2639;DHT22;1329;51.384;7.122;2023-03-23T04:03:01;13.00;99.90
2639;DHT22;1329;51.384;7.122;2023-03-23T04:05:29;13.00;99.90
2639;DHT22;1329;51.384;7.122;2023-03-23T04:08:08;13.00;99.90
2639;DHT22;1329;51.384;7.122;2023-03-23T04:10:37;13.00;99.90
2639;DHT22;1329;51.384;7.122;2023-03-23T04:13:05;13.00;99.90
2639;DHT22;1329;51.384;7.122;2023-03-23T04:15:32;13.10;99.90
2639;DHT22;1329;51.384;7.122;2023-03-23T04:18:00;13.10;99.90
2639;DHT22;1329;51.384;7.122;2023-03-23T04:20:27;13.10;99.90
2639;DHT22;1329;51.384;7.122;2023-03-23T04:22:57;13.10;99.90
2639;DHT22;1329;51.384;7.122;2023-03-23T04:25:27;13.10;99.90
2639;DHT22;1329;51.384;7.122;2023-03-23T04:27:59;13.10;99.90
2639;DHT22;1329;51.384;7.122;2023-03-23T04:30:29;13.10;99.90
2639;DHT22;1329;51.384;7.122;2023-03-23T04:32:59;13.10;99.90
2639;DHT22;1329;51.384;7.122;2023-03-23T04:35:28;13.10;99.90
2639;DHT22;1329;51.384;7.122;2023-03-23T04:37:58;13.10;99.90
2639;DHT22;1329;51.384;7.122;2023-03-23T04:40:28;13.10;99.90
2639;DHT22;1329;51.384;7.122;2023-03-23T04:42:56;13.10;99.90
2639;DHT22;1329;51.384;7.122;2023-03-23T04:45:31;13.10;99.90
2639;DHT22;1329;51.384;7.122;2023-03-23T04:47:59;13.10;99.90
2639;DHT22;1329;51.384;7.122;2023-03-23T04:50:31;13.20;99.90
2639;DHT22;1329;51.384;7.122;2023-03-23T04:53:00;13.20;99.90
2639;DHT22;1329;51.384;7.122;2023-03-23T04:55:37;13.20;99.90
2639;DHT22;1329;51.384;7.122;2023-03-23T04:58:07;13.20;99.90
2639;DHT22;1329;51.384;7.122;2023-03-23T05:00:35;13.20;99.90
2639;DHT22;1329;51.384;7.122;2023-03-23T05:03:02;13.20;99.90
2639;DHT22;1329;51.384;7.122;2023-03-23T05:05:31;13.20;99.90
2639;DHT22;1329;51.384;7.122;2023-03-23T05:08:02;13.20;99.90
2639;DHT22;1329;51.384;7.122;2023-03-23T05:10:36;13.20;99.90
2639;DHT22;1329;51.384;7.122;2023-03-23T05:13:04;13.20;99.90
2639;DHT22;1329;51.384;7.122;2023-03-23T05:15:32;13.20;99.90
2639;DHT22;1329;51.384;7.122;2023-03-23T05:18:01;13.30;99.90
2639;DHT22;1329;51.384;7.122;2023-03-23T05:20:29;13.30;99.90
2639;DHT22;1329;51.384;7.122;2023-03-23T05:22:59;13.30;99.90
2639;DHT22;1329;51.384;7.122;2023-03-23T05:25:28;13.30;99.90
2639;DHT22;1329;51.384;7.122;2023-03-23T05:28:07;13.30;99.90
2639;DHT22;1329;51.384;7.122;2023-03-23T05:30:37;13.30;99.90
2639;DHT22;1329;51.384;7.122;2023-03-23T05:33:08;13.40;99.90
2639;DHT22;1329;51.384;7.122;2023-03-23T05:35:40;13.40;99.90
2639;DHT22;1329;51.384;7.122;2023-03-23T05:38:08;13.40;99.90
2639;DHT22;1329;51.384;7.122;2023-03-23T05:40:39;13.40;99.90
2639;DHT22;1329;51.384;7.122;2023-03-23T05:43:14;13.40;99.90
2639;DHT22;1329;51.384;7.122;2023-03-23T05:45:54;13.40;99.90
2639;DHT22;1329;51.384;7.122;2023-03-23T05:48:26;13.40;99.90
2639;DHT22;1329;51.384;7.122;2023-03-23T05:50:59;13.40;99.90
2639;DHT22;1329;51.384;7.122;2023-03-23T05:53:33;13.40;99.90
2639;DHT22;1329;51.384;7.122;2023-03-23T05:56:02;13.40;99.90
2639;DHT22;1329;51.384;7.122;2023-03-23T05:58:35;13.40;99.90
2639;DHT22;1329;51.384;7.122;2023-03-23T06:01:06;13.40;99.90
2639;DHT22;1329;51.384;7.122;2023-03-23T06:03:42;13.40;99.90
2639;DHT22;1329;51.384;7.122;2023-03-23T06:06:12;13.50;99.90
2639;DHT22;1329;51.384;7.122;2023-03-23T06:08:40;13.50;99.90
2639;DHT22;1329;51.384;7.122;2023-03-23T06:11:12;13.50;99.90
2639;DHT22;1329;51.384;7.122;2023-03-23T06:13:43;13.50;99.90
2639;DHT22;1329;51.384;7.122;2023-03-23T06:16:12;13.50;99.90
2639;DHT22;1329;51.384;7.122;2023-03-23T06:18:46;13.50;99.90
2639;DHT22;1329;51.384;7.122;2023-03-23T06:21:14;13.50;99.90
2639;DHT22;1329;51.384;7.122;2023-03-23T06:23:45;13.50;99.90
2639;DHT22;1329;51.384;7.122;2023-03-23T06:26:20;13.50;99.90
2639;DHT22;1329;51.384;7.122;2023-03-23T06:28:53;13.50;99.90
2639;DHT22;1329;51.384;7.122;2023-03-23T06:31:22;13.50;99.90
2639;DHT22;1329;51.384;7.122;2023-03-23T06:33:50;13.60;99.90
2639;DHT22;1329;51.384;7.122;2023-03-23T06:36:19;13.60;99.90
2639;DHT22;1329;51.384;7.122;2023-03-23T06:38:48;13.60;99.90
2639;DHT22;1329;51.384;7.122;2023-03-23T06:41:24;13.60;99.90
2639;DHT22;1329;51.384;7.122;2023-03-23T06:43:54;13.60;99.90
2639;DHT22;1329;51.384;7.122;2023-03-23T06:46:26;13.70;99.90
2639;DHT22;1329;51.384;7.122;2023-03-23T06:49:01;13.70;99.90
2639;DHT22;1329;51.384;7.122;2023-03-23T06:51:33;13.80;99.90
2639;DHT22;1329;51.384;7.122;2023-03-23T06:54:02;13.80;99.90
2639;DHT22;1329;51.384;7.122;2023-03-23T06:56:32;13.80;99.90
2639;DHT22;1329;51.384;7.122;2023-03-23T06:59:06;13.90;99.90
2639;DHT22;1329;51.384;7.122;2023-03-23T07:01:36;13.90;99.90
2639;DHT22;1329;51.384;7.122;2023-03-23T07:04:05;13.90;99.90
2639;DHT22;1329;51.384;7.122;2023-03-23T07:06:34;13.90;99.90
2639;DHT22;1329;51.384;7.122;2023-03-23T07:09:04;13.90;99.90
2639;DHT22;1329;51.384;7.122;2023-03-23T07:11:32;14.00;99.90
2639;DHT22;1329;51.384;7.122;2023-03-23T07:14:08;14.00;99.90
2639;DHT22;1329;51.384;7.122;2023-03-23T07:16:38;14.00;99.90
2639;DHT22;1329;51.384;7.122;2023-03-23T07:19:11;14.10;99.90
2639;DHT22;1329;51.384;7.122;2023-03-23T07:21:39;14.10;99.90
2639;DHT22;1329;51.384;7.122;2023-03-23T07:24:11;14.10;99.90
2639;DHT22;1329;51.384;7.122;2023-03-23T07:26:41;14.10;99.90
2639;DHT22;1329;51.384;7.122;2023-03-23T07:29:11;14.10;99.90
2639;DHT22;1329;51.384;7.122;2023-03-23T07:31:40;14.10;99.90
2639;DHT22;1329;51.384;7.122;2023-03-23T07:34:12;14.10;99.90
2639;DHT22;1329;51.384;7.122;2023-03-23T07:36:46;14.20;99.90
2639;DHT22;1329;51.384;7.122;2023-03-23T07:39:19;14.20;99.90
2639;DHT22;1329;51.384;7.122;2023-03-23T07:41:50;14.20;99.90
2639;DHT22;1329;51.384;7.122;2023-03-23T07:44:20;14.30;99.90
2639;DHT22;1329;51.384;7.122;2023-03-23T07:46:50;14.30;99.90
2639;DHT22;1329;51.384;7.122;2023-03-23T07:49:24;14.30;99.90
2639;DHT22;1329;51.384;7.122;2023-03-23T07:51:53;14.30;99.90
2639;DHT22;1329;51.384;7.122;2023-03-23T07:54:28;14.30;99.90
2639;DHT22;1329;51.384;7.122;2023-03-23T07:56:57;14.30;99.90
2639;DHT22;1329;51.384;7.122;2023-03-23T07:59:26;14.40;99.90
2639;DHT22;1329;51.384;7.122;2023-03-23T08:01:57;14.40;99.90
2639;DHT22;1329;51.384;7.122;2023-03-23T08:04:29;14.40;99.90
2639;DHT22;1329;51.384;7.122;2023-03-23T08:07:03;14.40;99.90
2639;DHT22;1329;51.384;7.122;2023-03-23T08:09:32;14.50;99.90
2639;DHT22;1329;51.384;7.122;2023-03-23T08:12:07;14.50;99.90
2639;DHT22;1329;51.384;7.122;2023-03-23T08:14:39;14.50;99.90
2639;DHT22;1329;51.384;7.122;2023-03-23T08:17:08;14.60;99.90
2639;DHT22;1329;51.384;7.122;2023-03-23T08:19:40;14.60;99.90
2639;DHT22;1329;51.384;7.122;2023-03-23T08:22:12;14.60;99.90
2639;DHT22;1329;51.384;7.122;2023-03-23T08:24:46;14.60;99.90
2639;DHT22;1329;51.384;7.122;2023-03-23T08:27:14;14.60;99.90
2639;DHT22;1329;51.384;7.122;2023-03-23T08:29:45;14.70;99.90
2639;DHT22;1329;51.384;7.122;2023-03-23T08:32:14;14.70;99.90
2639;DHT22;1329;51.384;7.122;2023-03-23T08:34:46;14.70;99.90
2639;DHT22;1329;51.384;7.122;2023-03-23T08:37:16;14.80;99.90
2639;DHT22;1329;51.384;7.122;2023-03-23T08:39:45;14.80;99.90
2639;DHT22;1329;51.384;7.122;2023-03-23T08:42:14;14.80;99.90
2639;DHT22;1329;51.384;7.122;2023-03-23T08:44:47;14.90;99.90
2639;DHT22;1329;51.384;7.122;2023-03-23T08:47:17;14.90;99.90
2639;DHT22;1329;51.384;7.122;2023-03-23T08:49:45;15.00;99.90
2639;DHT22;1329;51.384;7.122;2023-03-23T08:52:21;15.00;99.90
2639;DHT22;1329;51.384;7.122;2023-03-23T08:54:53;15.10;99.90
2639;DHT22;1329;51.384;7.122;2023-03-23T08:57:27;15.10;99.90
2639;DHT22;1329;51.384;7.122;2023-03-23T08:59:58;15.20;99.90
2639;DHT22;1329;51.384;7.122;2023-03-23T09:02:39;15.20;99.90
2639;DHT22;1329;51.384;7.122;2023-03-23T09:05:15;15.20;99.90
2639;DHT22;1329;51.384;7.122;2023-03-23T09:07:56;15.30;99.90
2639;DHT22;1329;51.384;7.122;2023-03-23T09:10:28;15.30;99.90
2639;DHT22;1329;51.384;7.122;2023-03-23T09:13:00;15.40;99.90
2639;DHT22;1329;51.384;7.122;2023-03-23T09:15:30;15.40;99.90
2639;DHT22;1329;51.384;7.122;2023-03-23T09:18:00;15.40;99.90
2639;DHT22;1329;51.384;7.122;2023-03-23T09:20:30;15.50;99.90
2639;DHT22;1329;51.384;7.122;2023-03-23T09:22:59;15.50;99.90
2639;DHT22;1329;51.384;7.122;2023-03-23T09:25:28;15.50;99.90
2639;DHT22;1329;51.384;7.122;2023-03-23T09:28:00;15.50;99.90
2639;DHT22;1329;51.384;7.122;2023-03-23T09:30:36;15.50;99.90
2639;DHT22;1329;51.384;7.122;2023-03-23T09:33:10;15.50;99.90
2639;DHT22;1329;51.384;7.122;2023-03-23T09:35:40;15.50;99.90
2639;DHT22;1329;51.384;7.122;2023-03-23T09:38:10;15.50;99.90
2639;DHT22;1329;51.384;7.122;2023-03-23T09:40:46;15.50;99.90
2639;DHT22;1329;51.384;7.122;2023-03-23T09:43:36;15.50;99.90
2639;DHT22;1329;51.384;7.122;2023-03-23T09:46:35;15.50;98.30
2639;DHT22;1329;51.384;7.122;2023-03-23T09:49:19;15.60;97.20
2639;DHT22;1329;51.384;7.122;2023-03-23T09:51:54;15.60;99.90
2639;DHT22;1329;51.384;7.122;2023-03-23T09:54:27;15.60;99.90
2639;DHT22;1329;51.384;7.122;2023-03-23T09:57:00;15.60;99.90
2639;DHT22;1329;51.384;7.122;2023-03-23T09:59:34;15.60;99.90
2639;DHT22;1329;51.384;7.122;2023-03-23T10:02:15;15.50;98.50
2639;DHT22;1329;51.384;7.122;2023-03-23T10:04:47;15.50;96.50
2639;DHT22;1329;51.384;7.122;2023-03-23T10:07:19;15.50;98.70
2639;DHT22;1329;51.384;7.122;2023-03-23T10:09:51;15.50;98.70
2639;DHT22;1329;51.384;7.122;2023-03-23T10:12:30;15.50;99.40
2639;DHT22;1329;51.384;7.122;2023-03-23T10:15:14;15.40;96.70
2639;DHT22;1329;51.384;7.122;2023-03-23T10:17:54;15.40;97.00
2639;DHT22;1329;51.384;7.122;2023-03-23T10:20:36;15.40;98.50
2639;DHT22;1329;51.384;7.122;2023-03-23T10:23:34;15.30;97.50
2639;DHT22;1329;51.384;7.122;2023-03-23T10:26:15;15.20;96.40
2639;DHT22;1329;51.384;7.122;2023-03-23T10:29:07;15.00;98.40
2639;DHT22;1329;51.384;7.122;2023-03-23T10:31:41;14.80;98.90
2639;DHT22;1329;51.384;7.122;2023-03-23T10:34:23;14.60;99.90
2639;DHT22;1329;51.384;7.122;2023-03-23T10:37:01;14.50;99.90
2639;DHT22;1329;51.384;7.122;2023-03-23T10:39:38;14.40;99.90
2639;DHT22;1329;51.384;7.122;2023-03-23T10:42:11;14.20;99.90
2639;DHT22;1329;51.384;7.122;2023-03-23T10:44:43;14.10;99.90
2639;DHT22;1329;51.384;7.122;2023-03-23T10:47:13;14.00;99.90
2639;DHT22;1329;51.384;7.122;2023-03-23T10:49:45;13.90;99.90
2639;DHT22;1329;51.384;7.122;2023-03-23T10:52:30;13.90;99.90
2639;DHT22;1329;51.384;7.122;2023-03-23T10:55:09;13.80;99.90
2639;DHT22;1329;51.384;7.122;2023-03-23T10:57:58;13.70;99.90
2639;DHT22;1329;51.384;7.122;2023-03-23T11:00:41;13.70;99.90
2639;DHT22;1329;51.384;7.122;2023-03-23T11:03:35;13.70;99.90
2639;DHT22;1329;51.384;7.122;2023-03-23T11:06:18;13.60;99.90
2639;DHT22;1329;51.384;7.122;2023-03-23T11:08:51;13.50;99.90
2639;DHT22;1329;51.384;7.122;2023-03-23T11:11:24;13.50;99.90
2639;DHT22;1329;51.384;7.122;2023-03-23T11:13:58;13.50;99.90
2639;DHT22;1329;51.384;7.122;2023-03-23T11:16:31;13.40;99.90
2639;DHT22;1329;51.384;7.122;2023-03-23T11:19:13;13.30;99.90
2639;DHT22;1329;51.384;7.122;2023-03-23T11:21:51;13.30;99.90
2639;DHT22;1329;51.384;7.122;2023-03-23T11:24:22;13.20;99.90
2639;DHT22;1329;51.384;7.122;2023-03-23T11:26:57;13.20;99.90
2639;DHT22;1329;51.384;7.122;2023-03-23T11:29:29;13.10;99.90
2639;DHT22;1329;51.384;7.122;2023-03-23T11:32:04;13.10;99.90
2639;DHT22;1329;51.384;7.122;2023-03-23T11:34:42;13.10;99.90
2639;DHT22;1329;51.384;7.122;2023-03-23T11:37:15;13.10;99.90
2639;DHT22;1329;51.384;7.122;2023-03-23T11:39:53;13.10;99.90
2639;DHT22;1329;51.384;7.122;2023-03-23T11:42:35;13.10;99.90
2639;DHT22;1329;51.384;7.122;2023-03-23T11:45:25;13.00;99.90
2639;DHT22;1329;51.384;7.122;2023-03-23T11:48:12;13.00;99.90
2639;DHT22;1329;51.384;7.122;2023-03-23T11:51:02;13.00;99.90
2639;DHT22;1329;51.384;7.122;2023-03-23T11:53:44;13.00;99.90
2639;DHT22;1329;51.384;7.122;2023-03-23T11:56:23;13.10;99.90
2639;DHT22;1329;51.384;7.122;2023-03-23T11:58:55;13.20;99.90
2639;DHT22;1329;51.384;7.122;2023-03-23T12:01:40;13.20;99.90
2639;DHT22;1329;51.384;7.122;2023-03-23T12:04:37;13.30;99.90
2639;DHT22;1329;51.384;7.122;2023-03-23T12:07:30;13.40;99.90
2639;DHT22;1329;51.384;7.122;2023-03-23T12:10:15;13.50;99.90
2639;DHT22;1329;51.384;7.122;2023-03-23T12:13:05;13.60;99.90
2639;DHT22;1329;51.384;7.122;2023-03-23T12:15:48;13.60;99.90
2639;DHT22;1329;51.384;7.122;2023-03-23T12:18:27;13.70;99.90
2639;DHT22;1329;51.384;7.122;2023-03-23T12:21:11;13.80;99.90
2639;DHT22;1329;51.384;7.122;2023-03-23T12:23:48;13.80;99.90
2639;DHT22;1329;51.384;7.122;2023-03-23T12:26:24;13.90;99.90
2639;DHT22;1329;51.384;7.122;2023-03-23T12:29:15;13.90;99.90
2639;DHT22;1329;51.384;7.122;2023-03-23T12:35:14;14.00;99.90
2639;DHT22;1329;51.384;7.122;2023-03-23T12:38:00;13.90;99.90
2639;DHT22;1329;51.384;7.122;2023-03-23T12:40:47;13.90;99.90
2639;DHT22;1329;51.384;7.122;2023-03-23T12:43:30;13.90;99.90
2639;DHT22;1329;51.384;7.122;2023-03-23T12:46:35;13.80;99.90
2639;DHT22;1329;51.384;7.122;2023-03-23T12:49:15;13.80;99.90
2639;DHT22;1329;51.384;7.122;2023-03-23T12:51:51;13.70;99.90
2639;DHT22;1329;51.384;7.122;2023-03-23T12:54:29;13.80;99.90
2639;DHT22;1329;51.384;7.122;2023-03-23T12:57:07;13.70;99.90
2639;DHT22;1329;51.384;7.122;2023-03-23T12:59:43;13.70;99.90
2639;DHT22;1329;51.384;7.122;2023-03-23T13:02:22;13.70;99.90
2639;DHT22;1329;51.384;7.122;2023-03-23T13:04:58;13.70;99.90
2639;DHT22;1329;51.384;7.122;2023-03-23T13:07:33;13.70;99.90
2639;DHT22;1329;51.384;7.122;2023-03-23T13:10:09;13.70;99.90
2639;DHT22;1329;51.384;7.122;2023-03-23T13:12:47;13.70;99.90
2639;DHT22;1329;51.384;7.122;2023-03-23T13:15:27;13.70;99.90
2639;DHT22;1329;51.384;7.122;2023-03-23T13:18:07;13.70;99.90
2639;DHT22;1329;51.384;7.122;2023-03-23T13:20:54;13.70;99.90
2639;DHT22;1329;51.384;7.122;2023-03-23T13:23:31;13.70;99.90
2639;DHT22;1329;51.384;7.122;2023-03-23T13:26:05;13.70;99.90
2639;DHT22;1329;51.384;7.122;2023-03-23T13:28:58;13.80;99.90
2639;DHT22;1329;51.384;7.122;2023-03-23T13:31:33;13.90;99.90
2639;DHT22;1329;51.384;7.122;2023-03-23T13:34:15;14.00;99.90
2639;DHT22;1329;51.384;7.122;2023-03-23T13:36:53;14.10;99.90
2639;DHT22;1329;51.384;7.122;2023-03-23T13:39:25;14.30;99.90
2639;DHT22;1329;51.384;7.122;2023-03-23T13:42:03;14.40;99.90
2639;DHT22;1329;51.384;7.122;2023-03-23T13:45:05;14.60;99.90
2639;DHT22;1329;51.384;7.122;2023-03-23T13:47:43;14.70;99.90
2639;DHT22;1329;51.384;7.122;2023-03-23T13:50:26;14.80;99.90
2639;DHT22;1329;51.384;7.122;2023-03-23T13:52:59;14.80;99.90
2639;DHT22;1329;51.384;7.122;2023-03-23T13:55:40;14.90;99.90
2639;DHT22;1329;51.384;7.122;2023-03-23T13:58:23;14.90;99.90
2639;DHT22;1329;51.384;7.122;2023-03-23T14:01:11;14.90;99.90
2639;DHT22;1329;51.384;7.122;2023-03-23T14:03:47;14.90;99.90
2639;DHT22;1329;51.384;7.122;2023-03-23T14:06:19;14.90;99.90
2639;DHT22;1329;51.384;7.122;2023-03-23T14:08:53;14.90;99.90
2639;DHT22;1329;51.384;7.122;2023-03-23T14:11:23;14.90;99.90
2639;DHT22;1329;51.384;7.122;2023-03-23T14:14:02;14.90;99.90
2639;DHT22;1329;51.384;7.122;2023-03-23T14:16:37;14.90;99.90
2639;DHT22;1329;51.384;7.122;2023-03-23T14:19:17;14.90;99.90
2639;DHT22;1329;51.384;7.122;2023-03-23T14:21:54;14.90;99.90
2639;DHT22;1329;51.384;7.122;2023-03-23T14:24:24;14.90;99.90
2639;DHT22;1329;51.384;7.122;2023-03-23T14:27:02;14.90;99.90
2639;DHT22;1329;51.384;7.122;2023-03-23T14:29:35;14.90;99.90
2639;DHT22;1329;51.384;7.122;2023-03-23T14:32:12;14.80;99.90
2639;DHT22;1329;51.384;7.122;2023-03-23T14:34:50;14.90;99.90
2639;DHT22;1329;51.384;7.122;2023-03-23T14:37:22;14.80;99.90
2639;DHT22;1329;51.384;7.122;2023-03-23T14:39:52;14.80;99.90
2639;DHT22;1329;51.384;7.122;2023-03-23T14:42:25;14.90;99.90
2639;DHT22;1329;51.384;7.122;2023-03-23T14:44:54;14.90;99.90
2639;DHT22;1329;51.384;7.122;2023-03-23T14:47:27;15.00;99.90
2639;DHT22;1329;51.384;7.122;2023-03-23T14:50:24;15.10;99.90
2639;DHT22;1329;51.384;7.122;2023-03-23T14:52:58;15.10;99.90
2639;DHT22;1329;51.384;7.122;2023-03-23T14:55:30;15.10;99.90
2639;DHT22;1329;51.384;7.122;2023-03-23T14:58:06;15.10;99.90
2639;DHT22;1329;51.384;7.122;2023-03-23T15:00:41;15.10;99.90
2639;DHT22;1329;51.384;7.122;2023-03-23T15:03:14;15.00;99.90
2639;DHT22;1329;51.384;7.122;2023-03-23T15:05:50;15.00;99.90
2639;DHT22;1329;51.384;7.122;2023-03-23T15:08:25;15.00;99.90
2639;DHT22;1329;51.384;7.122;2023-03-23T15:11:06;15.00;99.90
2639;DHT22;1329;51.384;7.122;2023-03-23T15:13:36;15.00;99.90
2639;DHT22;1329;51.384;7.122;2023-03-23T15:16:11;15.10;99.90
2639;DHT22;1329;51.384;7.122;2023-03-23T15:18:49;15.10;99.90
2639;DHT22;1329;51.384;7.122;2023-03-23T15:21:28;15.10;99.90
2639;DHT22;1329;51.384;7.122;2023-03-23T15:23:57;15.10;99.90
2639;DHT22;1329;51.384;7.122;2023-03-23T15:26:40;15.10;99.90
2639;DHT22;1329;51.384;7.122;2023-03-23T15:29:17;15.20;99.90
2639;DHT22;1329;51.384;7.122;2023-03-23T15:31:51;15.20;99.90
2639;DHT22;1329;51.384;7.122;2023-03-23T15:34:31;15.20;99.90
2639;DHT22;1329;51.384;7.122;2023-03-23T15:37:20;15.20;99.90
2639;DHT22;1329;51.384;7.122;2023-03-23T15:39:56;15.20;99.90
2639;DHT22;1329;51.384;7.122;2023-03-23T15:42:29;15.20;99.90
2639;DHT22;1329;51.384;7.122;2023-03-23T15:45:16;15.20;99.90
2639;DHT22;1329;51.384;7.122;2023-03-23T15:47:51;15.30;99.90
2639;DHT22;1329;51.384;7.122;2023-03-23T15:50:33;15.30;99.90
2639;DHT22;1329;51.384;7.122;2023-03-23T15:53:28;15.30;99.90
2639;DHT22;1329;51.384;7.122;2023-03-23T15:56:08;15.40;99.90
2639;DHT22;1329;51.384;7.122;2023-03-23T15:58:44;15.40;99.90
2639;DHT22;1329;51.384;7.122;2023-03-23T16:01:18;15.40;99.90
2639;DHT22;1329;51.384;7.122;2023-03-23T16:03:54;15.40;99.90
2639;DHT22;1329;51.384;7.122;2023-03-23T16:06:27;15.40;99.90
2639;DHT22;1329;51.384;7.122;2023-03-23T16:09:04;15.40;99.90
2639;DHT22;1329;51.384;7.122;2023-03-23T16:11:41;15.30;99.90
2639;DHT22;1329;51.384;7.122;2023-03-23T16:14:12;15.30;99.90
2639;DHT22;1329;51.384;7.122;2023-03-23T16:16:45;15.30;99.90
2639;DHT22;1329;51.384;7.122;2023-03-23T16:19:18;15.30;99.90
2639;DHT22;1329;51.384;7.122;2023-03-23T16:21:49;15.30;99.90
2639;DHT22;1329;51.384;7.122;2023-03-23T16:24:18;15.30;99.90
2639;DHT22;1329;51.384;7.122;2023-03-23T16:26:45;15.30;99.90
2639;DHT22;1329;51.384;7.122;2023-03-23T16:29:15;15.30;99.90
2639;DHT22;1329;51.384;7.122;2023-03-23T16:31:53;15.30;99.90
2639;DHT22;1329;51.384;7.122;2023-03-23T16:34:21;15.20;99.90
2639;DHT22;1329;51.384;7.122;2023-03-23T16:36:49;15.20;99.90
2639;DHT22;1329;51.384;7.122;2023-03-23T16:39:19;15.20;99.90
2639;DHT22;1329;51.384;7.122;2023-03-23T16:41:48;15.20;99.90
2639;DHT22;1329;51.384;7.122;2023-03-23T16:44:17;15.20;99.90
2639;DHT22;1329;51.384;7.122;2023-03-23T16:46:44;15.20;99.90
2639;DHT22;1329;51.384;7.122;2023-03-23T16:49:12;15.10;99.90
2639;DHT22;1329;51.384;7.122;2023-03-23T16:51:39;15.10;99.90
2639;DHT22;1329;51.384;7.122;2023-03-23T16:54:06;15.10;99.90